createdAt,value
2023-08-03T00:05:14.037Z,46.4
2023-08-03T00:10:32.562Z,46.7
2023-08-03T00:15:51.420Z,46.2
2023-08-03T00:21:09.441Z,46.8
2023-08-03T00:26:27.769Z,45.8
2023-08-03T00:31:47.324Z,46.5
2023-08-03T00:37:05.962Z,46.6
2023-08-03T00:42:24.315Z,45.9
2023-08-03T00:47:43.031Z,46.6
2023-08-03T00:53:01.463Z,46.8
2023-08-03T00:58:19.787Z,46.3
2023-08-03T01:03:38.235Z,45.8
2023-08-03T01:08:56.754Z,46.9
2023-08-03T01:14:15.149Z,46.6
2023-08-03T01:19:33.404Z,46.9
2023-08-03T01:24:51.742Z,46.2
2023-08-03T01:30:10.085Z,46.4
2023-08-03T01:35:28.315Z,46.5
2023-08-03T01:40:46.853Z,46.6
2023-08-03T01:46:05.125Z,46.9
2023-08-03T01:51:23.426Z,46.6
2023-08-03T01:56:41.772Z,46.1
2023-08-03T02:02:00.155Z,46.2
2023-08-03T02:07:18.561Z,46.8
2023-08-03T02:12:36.909Z,47
2023-08-03T02:17:55.509Z,46.5
2023-08-03T02:23:13.873Z,46.6
2023-08-03T02:28:32.192Z,46.2
2023-08-03T02:33:50.651Z,47
2023-08-03T02:39:08.864Z,46.9
2023-08-03T02:44:27.227Z,45.9
2023-08-03T02:49:45.569Z,45.8
2023-08-03T02:55:03.848Z,45.9
2023-08-03T03:00:22.010Z,46
2023-08-03T03:05:40.168Z,45.6
2023-08-03T03:10:58.409Z,45.6
2023-08-03T03:16:16.834Z,46.8
2023-08-03T03:21:35.362Z,45.8
2023-08-03T03:26:53.784Z,46.2
2023-08-03T03:32:12.295Z,47.1
2023-08-03T03:37:30.458Z,46.4
2023-08-03T03:42:48.824Z,45.4
2023-08-03T03:48:07.285Z,45.7
2023-08-03T03:53:25.434Z,47.3
2023-08-03T03:58:43.922Z,46.9
2023-08-03T04:04:02.513Z,46
2023-08-03T04:09:20.723Z,45.9
2023-08-03T04:14:39.100Z,45.5
2023-08-03T04:19:57.250Z,46.1
2023-08-03T04:25:00.165Z,46
2023-08-03T04:30:18.421Z,46.1
2023-08-03T04:35:36.942Z,45.2
2023-08-03T04:40:55.220Z,45.2
2023-08-03T04:46:13.907Z,46.7
2023-08-03T04:51:32.157Z,46.5
2023-08-03T04:56:50.353Z,46.9
2023-08-03T05:02:09.457Z,46.5
2023-08-03T05:07:27.694Z,46.5
2023-08-03T05:12:45.647Z,47.1
2023-08-03T05:18:04.473Z,46.6
2023-08-03T05:23:22.506Z,47.2
2023-08-03T05:28:40.694Z,46.5
2023-08-03T05:33:58.876Z,46.7
2023-08-03T05:39:16.963Z,46.4
2023-08-03T05:44:35.326Z,45.5
2023-08-03T05:49:53.572Z,46
2023-08-03T05:55:11.913Z,46.6
2023-08-03T06:00:30.158Z,45.8
2023-08-03T06:05:48.556Z,46.3
2023-08-03T06:11:06.738Z,46.6
2023-08-03T06:16:25.314Z,46.2
2023-08-03T06:21:44.507Z,45.7
2023-08-03T06:26:47.579Z,45.3
2023-08-03T06:32:06.053Z,45.5
2023-08-03T06:37:24.617Z,46.1
2023-08-03T06:42:42.994Z,45.5
2023-08-03T06:48:01.181Z,46.3
2023-08-03T06:53:19.537Z,46.5
2023-08-03T06:58:38.254Z,46.3
2023-08-03T07:03:56.809Z,45.4
2023-08-03T07:09:15.165Z,46.1
2023-08-03T07:14:33.706Z,45.9
2023-08-03T07:19:51.723Z,46.5
2023-08-03T07:25:10.046Z,45.4
2023-08-03T07:30:12.562Z,46.3
2023-08-03T07:35:30.798Z,45.7
2023-08-03T07:40:49.203Z,45.8
2023-08-03T07:46:07.288Z,45.7
2023-08-03T07:51:09.932Z,46.1
2023-08-03T07:56:30.489Z,46.2
2023-08-03T08:01:49.422Z,45.3
2023-08-03T08:07:07.960Z,45.8
2023-08-03T08:12:26.569Z,45.9
2023-08-03T08:17:45.073Z,45.4
2023-08-03T08:23:03.309Z,45.2
2023-08-03T08:28:22.037Z,45
2023-08-03T08:33:40.382Z,45.2
2023-08-03T08:38:58.568Z,46.2
2023-08-03T08:44:17.091Z,45
2023-08-03T08:49:42.185Z,45.4
2023-08-03T09:00:30.224Z,45.7
2023-08-03T09:11:15.972Z,46.4
2023-08-03T09:16:34.851Z,45.5
2023-08-03T09:27:20.554Z,45.3
2023-08-03T09:32:51.910Z,45.7
2023-08-03T09:38:10.209Z,46.3
2023-08-03T09:43:35.919Z,45.4
2023-08-03T09:54:22.126Z,45.2
2023-08-03T09:59:40.366Z,46.4
2023-08-03T10:04:58.564Z,45.9
2023-08-03T10:10:17.122Z,46.3
2023-08-03T10:15:39.137Z,45.8
2023-08-03T10:20:57.784Z,46.4
2023-08-03T10:26:16.087Z,45.6
2023-08-03T10:31:34.542Z,45.9
2023-08-03T10:36:53.568Z,45.9
2023-08-03T10:42:11.863Z,46
2023-08-03T10:47:30.851Z,46.1
2023-08-03T10:52:49.484Z,45.6
2023-08-03T10:58:07.852Z,45.7
2023-08-03T11:03:26.701Z,46.5
2023-08-03T11:08:44.969Z,46.4
2023-08-03T11:14:03.528Z,45.3
2023-08-03T11:19:21.737Z,46
2023-08-03T11:24:39.926Z,46.5
2023-08-03T11:29:58.080Z,46.3
2023-08-03T11:35:16.233Z,46.4
2023-08-03T11:40:34.638Z,46
2023-08-03T11:45:52.876Z,46.6
2023-08-03T11:51:11.073Z,46.6
2023-08-03T11:56:46.178Z,45.7
2023-08-03T12:02:04.709Z,45.4
2023-08-03T12:07:23.626Z,46.6
2023-08-03T12:18:00.784Z,45.9
2023-08-03T12:23:19.001Z,45.5
2023-08-03T12:28:37.188Z,46.5
2023-08-03T12:33:55.894Z,46.3
2023-08-03T12:39:14.395Z,46.1
2023-08-03T12:44:32.798Z,46
2023-08-03T12:49:50.991Z,46.5
2023-08-03T12:55:08.955Z,46.5
2023-08-03T13:00:29.999Z,45.4
2023-08-03T13:05:48.433Z,46.2
2023-08-03T13:11:08.069Z,45.9
2023-08-03T13:16:26.645Z,46.3
2023-08-03T13:21:46.292Z,46.5
2023-08-03T13:27:04.758Z,46
2023-08-03T13:32:23.313Z,46.3
2023-08-03T13:37:41.724Z,45.3
2023-08-03T13:42:59.679Z,45.6
2023-08-03T13:48:18.126Z,47.4
2023-08-03T13:53:36.172Z,46.8
2023-08-03T13:58:54.542Z,47.1
2023-08-03T14:04:13.110Z,46.6
2023-08-03T14:09:31.889Z,47.7
2023-08-03T14:14:50.279Z,46.7
2023-08-03T14:25:43.389Z,46.9
2023-08-03T14:31:01.608Z,47.4
2023-08-03T14:36:20.164Z,48.2
2023-08-03T14:41:38.679Z,47.8
2023-08-03T14:47:02.201Z,48.5
2023-08-03T14:52:25.741Z,47.7
2023-08-03T14:57:44.383Z,47.2
2023-08-03T15:03:03.235Z,48
2023-08-03T15:08:21.545Z,47.7
2023-08-03T15:13:39.874Z,48
2023-08-03T15:19:00.203Z,47.8
2023-08-03T15:24:32.206Z,48.5
2023-08-03T15:29:57.094Z,47.4
2023-08-03T15:35:18.980Z,47.7
2023-08-03T15:41:05.744Z,48.3
2023-08-03T15:46:52.242Z,47.4
2023-08-03T15:52:27.286Z,48.2
2023-08-03T15:57:51.466Z,48.3
2023-08-03T16:03:09.948Z,47.4
2023-08-03T16:08:28.391Z,47.6
2023-08-03T16:13:46.852Z,48.5
2023-08-03T16:19:04.963Z,48.3
2023-08-03T16:24:23.318Z,48.2
2023-08-03T16:29:51.179Z,48
2023-08-03T16:35:10.269Z,47.8
2023-08-03T16:40:28.331Z,48.5
2023-08-03T16:45:50.094Z,48.5
2023-08-03T16:51:08.318Z,48.6
2023-08-03T16:56:26.690Z,48.8
2023-08-03T17:01:45.345Z,48.1
2023-08-03T17:07:04.376Z,48.3
2023-08-03T17:12:22.991Z,48.9
2023-08-03T17:17:41.600Z,49.3
2023-08-03T17:22:59.754Z,49.4
2023-08-03T17:28:18.263Z,49.9
2023-08-03T17:33:38.136Z,49.2
2023-08-03T17:38:56.608Z,49.2
2023-08-03T17:44:14.946Z,49.2
2023-08-03T17:49:33.138Z,49.3
2023-08-03T17:54:51.604Z,49.5
2023-08-03T18:00:09.856Z,49
2023-08-03T18:05:28.696Z,48.7
2023-08-03T18:10:47.330Z,47.6
2023-08-03T18:16:05.698Z,47.3
2023-08-03T18:21:24.295Z,48.4
2023-08-03T18:26:42.806Z,48.3
2023-08-03T18:32:01.072Z,47.3
2023-08-03T18:37:19.477Z,47.7
2023-08-03T18:42:37.950Z,48
2023-08-03T18:47:56.235Z,48.2
2023-08-03T18:53:14.439Z,47.6
2023-08-03T18:58:32.807Z,48.2
2023-08-03T19:03:51.683Z,48.4
2023-08-03T19:09:09.978Z,47.9
2023-08-03T19:14:28.032Z,47.9
2023-08-03T19:19:46.370Z,47.3
2023-08-03T19:25:05.123Z,46.4
2023-08-03T19:30:23.506Z,46.3
2023-08-03T19:35:42.033Z,47.1
2023-08-03T19:41:00.649Z,47.4
2023-08-03T19:46:19.324Z,46.9
2023-08-03T19:57:05.563Z,46.7
2023-08-03T20:07:51.212Z,47.1
2023-08-03T20:13:12.096Z,46.8
2023-08-03T20:18:30.439Z,47.3
2023-08-03T20:23:48.688Z,47.8
2023-08-03T20:29:07.147Z,47.8
2023-08-03T20:34:25.627Z,47.6
2023-08-03T20:40:01.565Z,47
2023-08-03T20:56:14.155Z,47.5
2023-08-03T21:01:32.411Z,47.5
2023-08-03T21:06:50.932Z,47.8
2023-08-03T21:12:09.341Z,47.2
2023-08-03T21:17:27.574Z,47.4
2023-08-03T21:22:46.213Z,47.1
2023-08-03T21:28:04.772Z,47.2
2023-08-03T21:33:23.388Z,47.1
2023-08-03T21:38:41.321Z,47.6
2023-08-03T21:43:59.689Z,47.1
2023-08-03T21:49:17.906Z,47.4
2023-08-03T21:54:36.034Z,48
2023-08-03T21:59:54.345Z,46.8
2023-08-03T22:05:13.176Z,47.4
2023-08-03T22:10:31.892Z,46.8
2023-08-03T22:15:50.017Z,46.9
2023-08-03T22:21:08.032Z,48
2023-08-03T22:26:26.356Z,47.3
2023-08-03T22:31:45.970Z,48.5
2023-08-03T22:37:04.427Z,48
2023-08-03T22:42:22.605Z,48.2
2023-08-03T22:53:27.083Z,49.2
2023-08-03T22:58:45.611Z,48.5
2023-08-03T23:04:04.414Z,48.7
2023-08-03T23:09:22.757Z,48.6
2023-08-03T23:14:40.904Z,49.1
2023-08-03T23:19:59.290Z,47.7
2023-08-03T23:25:17.547Z,48.5
2023-08-03T23:30:35.884Z,48.2
2023-08-03T23:35:54.247Z,49.4
2023-08-03T23:41:12.678Z,48.4
2023-08-03T23:46:21.185Z,48.8
2023-08-03T23:51:39.276Z,48.8
2023-08-03T23:56:57.929Z,49.1
